Rozel, KS (67574)

5:52 PM CST on February 26, 2015 (GMT -0600)
Sarrada Farms 2.0 N, 2.3 E | Change Station
CLOSE
Current Station
Personal Weather Station
Location: Rozel, KS
Elevation: 2073 ft
Nearby Weather Stations

Elev 2073 ft 38.22 °N, 99.36 °W | Updated 24 seconds ago

Partly Cloudy
Partly Cloudy
21.0 °F
Feels Like 11 °F
N
8.9
Wind Variable Wind from NNE
Gusts 13.0 mph

Today
High -- | Low -- °F
--% Chance of Precip.
Yesterday
High -- | Low -- °F
Precip. -- in
7:13 AM 6:27 PM
Waxing Gibbous, 63% visible
Pressure 30.46 in
Visibility 10.0 miles
Clouds Overcast 9500 ft
Windchill 11 °F
Dew Point -1 °F
Humidity 37%
Rainfall 0.00 in
Snow Depth Not available.
UV 0.0 out of 12
Pollen .40 out of 12
Air Quality Not available.
Flu Activity Not available.
METAR KDDC 262252Z AUTO 04012KT 10SM OVC095 M06/M18 A3035 RMK AO2 SLP314 T10561178

More Conditions Fewer Conditions

Pressure 30.46 in
Visibility 10.0 miles
Clouds Overcast 9500 ft
Windchill 11 °F
Dew Point -1 °F
Humidity 37%
Rainfall 0.00 in
Snow Depth Not available.
UV 0.0 out of 12
Pollen .40 out of 12
Air Quality Not available.
Flu Activity Not available.
METAR KDDC 262252Z AUTO 04012KT 10SM OVC095 M06/M18 A3035 RMK AO2 SLP314 T10561178

More Conditions Fewer Conditions

10-Day Weather Forecast

Almanac

Astronomy

Feb. 26, 2015 Rise Set
Actual Time
Civil Twilight
Nautical Twilight
Astronomical Twilight
Moon
Length of Visible Light
Length of Day
Tomorrow will be .
, % of the Moon is Illuminated

Today's Extremes

State Highs State Lows

Community

WunderPhotos

Upload Photos

1,800,529 photos uploaded!

WunderBlogs® & News

Nearby

Air Quality

  Air Quality AQ Index Pollutant
Not available.

Snow Depth

Station Depth Elevation

Earthquake Activity

City Distance Mag. Time & Date
Minimum magnitude displayed is 2.5.

Coastal Water Temperatures

Place Temperature

Nearby Weather Stations